Time;durP1;ratioP1;P1;durP2;ratioP2;P2;SDS_P1;SDS_P2;PMS_P1;PMS_P2;Temp;Humidity;BMP_temperature;BMP_pressure;BME280_temperature;BME280_humidity;BME280_pressure;Samples;Min_cycle;Max_cycle;Signal;HPM_P1;HPM_P2
2022/11/23 03:04:08;;;;;;;;;;;;;;;;;;;;;
2022/11/23 03:06:49;;;;;;;8.75;5.30;;;;;;;;;;4976823;28;20087;-95
2022/11/23 03:09:37;;;;;;;;;;;;;;;;;;;;;
2022/11/23 03:15:53;;;;;;;;;;;;;;;;;;;;;
2022/11/23 03:18:26;;;;;;;7.57;4.80;;;;;;;;;;4894024;29;20581;-96
2022/11/23 03:21:41;;;;;;;;;;;;;;;;;;;;;
2022/11/23 03:24:17;;;;;;;6.60;3.85;;;;;;;;;;4936958;29;20036;-96
2022/11/23 03:26:52;;;;;;;7.05;3.40;;;;;;;;;;4926043;29;20123;-95
2022/11/23 03:29:25;;;;;;;4.05;2.55;;;;;;;;;;4922933;29;20043;-96
2022/11/23 03:32:35;;;;;;;;;;;;;;;;;;;;;
2022/11/23 03:35:06;;;;;;;3.90;2.15;;;;;;;;;;4882542;29;20101;-95
2022/11/23 03:37:35;;;;;;;2.63;1.55;;;;;;;;;;4881902;28;20189;-96
2022/11/23 03:40:16;;;;;;;2.97;1.75;;;;;;;;;;4960786;28;20042;-95
2022/11/23 03:43:09;;;;;;;2.35;1.13;;;;;;;;;;4958992;28;20059;-96
2022/11/23 03:45:47;;;;;;;2.55;1.00;;;;;;;;;;4959375;28;20050;-95
2022/11/23 03:51:27;;;;;;;;;;;;;;;;;;;;;
2022/11/23 03:54:08;;;;;;;2.45;0.90;;;;;;;;;;4976261;28;20023;-96
2022/11/23 03:59:13;;;;;;;2.13;1.00;;;;;;;;;;5054025;28;20054;-95
2022/11/23 04:02:06;;;;;;;2.53;0.93;;;;;;;;;;5001723;28;20042;-95
2022/11/23 04:04:46;;;;;;;2.28;0.85;;;;;;;;;;4979888;28;20033;-96
2022/11/23 04:07:18;;;;;;;2.00;0.70;;;;;;;;;;4980814;28;20030;-96
2022/11/23 04:09:47;;;;;;;2.35;0.70;;;;;;;;;;4978740;28;20042;-96
2022/11/23 04:12:25;;;;;;;1.27;0.50;;;;;;;;;;4982001;28;20038;-96
2022/11/23 04:15:08;;;;;;;1.63;0.63;;;;;;;;;;4983369;28;20038;-96
2022/11/23 04:18:03;;;;;;;;;;;;;;;;;;4985482;28;20057;-96
2022/11/23 04:20:21;;;;;;;1.20;0.70;;;;;;;;;;4992800;28;19925;-96
2022/11/23 04:23:11;;;;;;;1.80;0.80;;;;;;;;;;4979822;28;20034;-96
2022/11/23 04:25:47;;;;;;;2.58;1.13;;;;;;;;;;4997981;28;20037;-96
2022/11/23 04:28:23;;;;;;;2.30;0.90;;;;;;;;;;4982112;28;20098;-95
2022/11/23 04:30:57;;;;;;;1.85;0.80;;;;;;;;;;4980178;28;20096;-96
2022/11/23 04:33:58;;;;;;;2.08;1.02;;;;;;;;;;5013984;28;20041;-94
2022/11/23 04:36:27;;;;;;;2.38;1.33;;;;;;;;;;5021636;28;20030;-95
2022/11/23 04:39:17;;;;;;;3.00;1.50;;;;;;;;;;5022234;28;20022;-96
2022/11/23 04:44:49;;;;;;;2.75;1.67;;;;;;;;;;5031109;28;20032;-96
2022/11/23 04:48:09;;;;;;;2.80;1.63;;;;;;;;;;5021609;28;20030;-96
2022/11/23 04:50:51;;;;;;;3.47;1.83;;;;;;;;;;4943724;29;20103;-96
2022/11/23 04:59:56;;;;;;;5.72;3.10;;;;;;;;;;4972446;28;20111;-95
2022/11/23 05:02:41;;;;;;;;;;;;;;;;;;;;;
2022/11/23 05:11:49;;;;;;;;;;;;;;;;;;;;;
2022/11/23 05:14:49;;;;;;;;;;;;;;;;;;;;;
2022/11/23 05:24:41;;;;;;;22.48;11.10;;;;;;;;;;5020562;28;20646;-96
2022/11/23 05:32:51;;;;;;;;;;;;;;;;;;;;;
2022/11/23 05:50:57;;;;;;;5.22;3.05;;;;;;;;;;5014945;28;20042;-96
2022/11/23 05:53:23;;;;;;;2.42;1.45;;;;;;;;;;5001178;28;20121;-94
2022/11/23 05:55:59;;;;;;;3.10;1.83;;;;;;;;;;4996368;28;20506;-94
2022/11/23 05:58:29;;;;;;;4.30;2.08;;;;;;;;;;5001648;28;20471;-96
2022/11/23 06:01:14;;;;;;;;;;;;;;;;;;;;;
2022/11/23 06:03:50;;;;;;;10.85;4.85;;;;;;;;;;5016635;28;20378;-96
2022/11/23 06:06:22;;;;;;;7.47;3.70;;;;;;;;;;4999341;28;20021;-96
2022/11/23 06:08:51;;;;;;;6.07;3.70;;;;;;;;;;4999355;28;20029;-96
2022/11/23 06:11:23;;;;;;;11.52;4.72;;;;;;;;;;4999584;28;20045;-94
2022/11/23 06:13:56;;;;;;;9.18;4.57;;;;;;;;;;4997765;28;20113;-94
2022/11/23 06:16:25;;;;;;;7.55;4.70;;;;;;;;;;4997569;28;20064;-94
2022/11/23 06:18:57;;;;;;;9.75;4.97;;;;;;;;;;4997814;28;20474;-95
2022/11/23 06:21:26;;;;;;;8.27;5.35;;;;;;;;;;4998003;28;20026;-94
2022/11/23 06:27:01;;;;;;;14.75;7.32;;;;;;;;;;4995096;28;20116;-94
2022/11/23 06:29:39;;;;;;;18.08;11.20;;;;;;;;;;4997716;28;20565;-94
2022/11/23 06:32:07;;;;;;;9.52;6.28;;;;;;;;;;4997565;28;20113;-94
2022/11/23 06:34:33;;;;;;;12.48;8.10;;;;;;;;;;4997468;28;20029;-94
2022/11/23 06:37:00;;;;;;;13.82;9.80;;;;;;;;;;4997408;28;20030;-95
2022/11/23 06:39:26;;;;;;;12.95;8.63;;;;;;;;;;4998286;28;20056;-93
2022/11/23 06:41:52;;;;;;;13.32;7.55;;;;;;;;;;4997367;28;20030;-93
2022/11/23 06:44:18;;;;;;;21.80;18.00;;;;;;;;;;4997439;28;20094;-93
2022/11/23 06:46:45;;;;;;;18.27;12.75;;;;;;;;;;4996560;28;20109;-94
2022/11/23 06:49:11;;;;;;;15.73;11.13;;;;;;;;;;4997267;28;20042;-94
2022/11/23 06:51:37;;;;;;;17.52;12.13;;;;;;;;;;4997201;28;20058;-94
2022/11/23 06:54:03;;;;;;;48.72;36.83;;;;;;;;;;4997299;28;20030;-94
2022/11/23 06:56:30;;;;;;;14.88;9.93;;;;;;;;;;4997905;28;20467;-94
2022/11/23 06:58:57;;;;;;;16.05;10.35;;;;;;;;;;4997257;28;20022;-93
2022/11/23 07:01:23;;;;;;;17.17;11.65;;;;;;;;;;4997261;28;20432;-95
2022/11/23 07:03:49;;;;;;;15.50;10.95;;;;;;;;;;4997152;28;20022;-94
2022/11/23 07:06:15;;;;;;;17.80;11.07;;;;;;;;;;4997206;28;20061;-94
2022/11/23 07:11:17;;;;;;;17.48;11.68;;;;;;;;;;5099524;23;20125;-95
2022/11/23 07:13:43;;;;;;;20.67;12.10;;;;;;;;;;5014689;28;20049;-94
2022/11/23 07:16:09;;;;;;;19.17;11.35;;;;;;;;;;5017046;28;20030;-96
2022/11/23 07:18:35;;;;;;;19.98;11.57;;;;;;;;;;5013553;28;20414;-94
2022/11/23 07:21:01;;;;;;;20.48;12.65;;;;;;;;;;5013214;28;20022;-94
2022/11/23 07:23:28;;;;;;;18.27;11.65;;;;;;;;;;5013754;28;20034;-93
2022/11/23 07:25:54;;;;;;;18.73;12.05;;;;;;;;;;5013419;28;20030;-94
2022/11/23 07:28:20;;;;;;;19.65;12.90;;;;;;;;;;5013422;28;20029;-95
2022/11/23 07:31:00;;;;;;;;;;;;;;;;;;;;;
2022/11/23 07:33:27;;;;;;;21.02;13.68;;;;;;;;;;4965325;29;20114;-94
2022/11/23 07:35:53;;;;;;;18.85;12.07;;;;;;;;;;5003232;28;20049;-95
2022/11/23 07:55:37;;;;;;;25.60;16.98;;;;;;;;;;5836181;23;20026;-95
2022/11/23 07:58:07;;;;;;;26.27;17.50;;;;;;;;;;5018859;28;20491;-95
2022/11/23 08:00:57;;;;;;;25.65;16.27;;;;;;;;;;5026901;28;20026;-93
2022/11/23 08:03:26;;;;;;;22.75;15.50;;;;;;;;;;5022005;28;20026;-94
2022/11/23 08:05:52;;;;;;;21.52;14.90;;;;;;;;;;5027107;28;20049;-96
2022/11/23 08:11:21;;;;;;;22.55;14.43;;;;;;;;;;5472572;23;20149;-92
2022/11/23 08:13:52;;;;;;;19.23;13.95;;;;;;;;;;5020521;28;20037;-95
2022/11/23 08:18:57;;;;;;;23.50;14.32;;;;;;;;;;5342435;23;20324;-94
2022/11/23 08:21:23;;;;;;;19.83;12.93;;;;;;;;;;5017683;28;20026;-95
2022/11/23 08:24:53;;;;;;;20.98;13.90;;;;;;;;;;5027975;28;20089;-94
2022/11/23 08:27:00;;;;;;;22.38;13.93;;;;;;;;;;5014875;28;20460;-95
2022/11/23 08:29:52;;;;;;;21.45;13.52;;;;;;;;;;5141134;23;20042;-93
2022/11/23 09:04:29;;;;;;;;;;;;;;;;;;;;;
2022/11/23 09:07:05;;;;;;;22.27;14.00;;;;;;;;;;5038772;28;20025;-94
2022/11/23 09:09:37;;;;;;;23.30;14.40;;;;;;;;;;5020640;28;20033;-96
2022/11/23 09:15:11;;;;;;;21.45;14.05;;;;;;;;;;5037868;28;20032;-95
2022/11/23 09:17:37;;;;;;;22.52;15.30;;;;;;;;;;5020719;28;20179;-96
2022/11/23 09:20:08;;;;;;;26.38;15.38;;;;;;;;;;5019863;28;20026;-96
2022/11/23 09:22:34;;;;;;;20.58;14.32;;;;;;;;;;5019618;28;20053;-96
2022/11/23 09:25:01;;;;;;;23.02;14.70;;;;;;;;;;5020233;28;20025;-96
2022/11/23 09:27:30;;;;;;;25.90;14.95;;;;;;;;;;5019573;28;20120;-93
2022/11/23 09:29:56;;;;;;;21.35;14.85;;;;;;;;;;5019165;28;20115;-94
2022/11/23 09:32:28;;;;;;;19.38;13.48;;;;;;;;;;5019767;28;20108;-92
2022/11/23 09:34:57;;;;;;;18.23;12.85;;;;;;;;;;5019678;28;20029;-96
2022/11/23 09:37:23;;;;;;;17.75;13.02;;;;;;;;;;5019365;28;20026;-95
2022/11/23 09:39:52;;;;;;;19.55;13.52;;;;;;;;;;5019702;28;20032;-96
2022/11/23 09:42:33;;;;;;;19.42;13.40;;;;;;;;;;5019589;28;20109;-93
2022/11/23 09:45:09;;;;;;;20.60;13.70;;;;;;;;;;5019811;28;20374;-96
2022/11/23 09:47:53;;;;;;;20.55;13.75;;;;;;;;;;5019190;28;20025;-94
2022/11/23 09:50:19;;;;;;;19.00;13.27;;;;;;;;;;5019135;28;20033;-96
2022/11/23 09:52:52;;;;;;;18.92;12.75;;;;;;;;;;5019098;28;20028;-96
2022/11/23 09:55:33;;;;;;;21.05;14.05;;;;;;;;;;5019112;28;20443;-95
2022/11/23 09:58:07;;;;;;;21.25;14.52;;;;;;;;;;5018947;28;20083;-95
2022/11/23 10:00:38;;;;;;;18.63;13.57;;;;;;;;;;5019070;28;20530;-96
2022/11/23 10:03:04;;;;;;;21.33;14.35;;;;;;;;;;5018828;28;20080;-93
2022/11/23 10:05:32;;;;;;;20.65;14.60;;;;;;;;;;5018723;28;20025;-95
2022/11/23 10:07:59;;;;;;;21.08;14.88;;;;;;;;;;5018444;28;20057;-92
2022/11/23 10:10:33;;;;;;;21.42;14.90;;;;;;;;;;5017967;28;20379;-94
2022/11/23 10:13:18;;;;;;;22.13;14.07;;;;;;;;;;5018984;28;20534;-95
2022/11/23 10:16:03;;;;;;;21.90;15.38;;;;;;;;;;5017683;28;20408;-95
2022/11/23 10:18:43;;;;;;;23.13;15.20;;;;;;;;;;5018424;28;20036;-94
2022/11/23 10:21:29;;;;;;;22.55;14.90;;;;;;;;;;5018228;28;20026;-95
2022/11/23 10:27:39;;;;;;;21.35;14.13;;;;;;;;;;4936781;29;20058;-94
2022/11/23 10:30:12;;;;;;;20.73;14.85;;;;;;;;;;4920211;29;20461;-94
2022/11/23 10:32:41;;;;;;;22.42;14.85;;;;;;;;;;4921483;29;20032;-90
2022/11/23 10:35:10;;;;;;;23.50;15.75;;;;;;;;;;4969518;28;20463;-90
2022/11/23 10:37:38;;;;;;;25.67;15.60;;;;;;;;;;5017084;28;20021;-91
2022/11/23 10:40:04;;;;;;;21.38;14.90;;;;;;;;;;5016997;28;20029;-91
2022/11/23 10:42:33;;;;;;;22.55;14.57;;;;;;;;;;5016880;28;20216;-92
2022/11/23 10:45:00;;;;;;;21.52;14.18;;;;;;;;;;5017216;28;20017;-91
2022/11/23 10:47:37;;;;;;;21.85;14.30;;;;;;;;;;5017510;28;20025;-92
2022/11/23 10:50:23;;;;;;;20.92;14.07;;;;;;;;;;5017335;28;20136;-92
2022/11/23 10:52:50;;;;;;;21.75;14.57;;;;;;;;;;5017126;28;20028;-91
2022/11/23 10:55:18;;;;;;;24.85;14.55;;;;;;;;;;5017035;28;20040;-92
2022/11/23 10:57:46;;;;;;;20.90;14.65;;;;;;;;;;5016792;28;20084;-92
2022/11/23 11:00:12;;;;;;;24.92;14.35;;;;;;;;;;5016719;28;20466;-92
2022/11/23 11:02:41;;;;;;;21.35;14.38;;;;;;;;;;5016893;28;20092;-92
2022/11/23 11:05:27;;;;;;;20.58;14.30;;;;;;;;;;5016754;28;20025;-92
2022/11/23 11:07:55;;;;;;;27.42;17.30;;;;;;;;;;5017095;28;20026;-90
2022/11/23 11:10:44;;;;;;;18.95;12.98;;;;;;;;;;5016791;28;20033;-89
2022/11/23 11:13:20;;;;;;;19.85;13.32;;;;;;;;;;4982554;28;20069;-94
2022/11/23 11:16:16;;;;;;;23.33;14.02;;;;;;;;;;5035149;28;20033;-92
2022/11/23 11:22:22;;;;;;;19.92;12.82;;;;;;;;;;4955569;29;20095;-94
2022/11/23 11:24:59;;;;;;;18.45;12.30;;;;;;;;;;4954085;28;20045;-94
2022/11/23 11:27:52;;;;;;;19.48;12.55;;;;;;;;;;5001946;28;20041;-96
2022/11/23 11:31:09;;;;;;;18.27;12.35;;;;;;;;;;5004757;28;20069;-96
2022/11/23 11:34:38;;;;;;;20.52;12.90;;;;;;;;;;4940469;29;20035;-94
2022/11/23 11:37:01;;;;;;;18.92;13.25;;;;;;;;;;4948105;28;20035;-93
2022/11/23 11:39:35;;;;;;;20.48;13.25;;;;;;;;;;4942206;29;20062;-92
2022/11/23 11:42:01;;;;;;;;;;;;;;;;;;4942204;28;20035;-93
2022/11/23 11:44:27;;;;;;;17.38;11.85;;;;;;;;;;4981470;28;19960;-93
2022/11/23 11:46:57;;;;;;;17.40;12.10;;;;;;;;;;4981333;28;20388;-93
2022/11/23 11:49:32;;;;;;;17.95;11.52;;;;;;;;;;4981753;28;20470;-93
2022/11/23 11:52:05;;;;;;;18.52;12.27;;;;;;;;;;4982053;28;20033;-96
2022/11/23 11:54:54;;;;;;;16.95;11.90;;;;;;;;;;4984595;28;20535;-94
2022/11/23 11:57:38;;;;;;;18.48;12.48;;;;;;;;;;4967686;28;20387;-95
2022/11/23 12:00:07;;;;;;;19.17;13.15;;;;;;;;;;4982648;28;20038;-94
2022/11/23 12:08:35;;;;;;;18.00;11.77;;;;;;;;;;4886135;29;20041;-95
2022/11/23 12:11:19;;;;;;;19.27;11.98;;;;;;;;;;4964034;28;20100;-95
2022/11/23 12:13:58;;;;;;;17.75;12.35;;;;;;;;;;4982288;28;20030;-93
2022/11/23 12:16:43;;;;;;;19.75;12.05;;;;;;;;;;4982348;28;20030;-94
2022/11/23 12:19:21;;;;;;;18.15;11.90;;;;;;;;;;4981037;28;20094;-95
2022/11/23 12:22:06;;;;;;;20.35;13.50;;;;;;;;;;4981003;28;20376;-95
2022/11/23 12:30:37;;;;;;;17.92;11.30;;;;;;;;;;5032563;23;20053;-96
2022/11/23 12:33:22;;;;;;;16.27;11.48;;;;;;;;;;5020723;28;20029;-96
2022/11/23 12:36:02;;;;;;;18.10;12.32;;;;;;;;;;5018446;28;20022;-95
2022/11/23 12:38:42;;;;;;;17.52;11.73;;;;;;;;;;5019507;28;20104;-96
2022/11/23 12:41:20;;;;;;;18.20;12.65;;;;;;;;;;5017630;28;20030;-96
2022/11/23 12:44:04;;;;;;;19.77;13.93;;;;;;;;;;5019082;28;20152;-95
2022/11/23 12:46:45;;;;;;;21.35;14.35;;;;;;;;;;5016191;28;20026;-96
2022/11/23 12:49:30;;;;;;;21.02;14.57;;;;;;;;;;5020670;28;20010;-96
2022/11/23 13:00:45;;;;;;;20.30;14.27;;;;;;;;;;5025147;28;20257;-95
2022/11/23 13:03:36;;;;;;;21.52;15.43;;;;;;;;;;5019009;28;20041;-94
2022/11/23 13:06:36;;;;;;;22.73;15.25;;;;;;;;;;5019786;28;20034;-96
2022/11/23 13:09:11;;;;;;;23.70;14.88;;;;;;;;;;5017833;28;20030;-96
2022/11/23 13:11:40;;;;;;;18.50;12.77;;;;;;;;;;5020918;28;20029;-95
2022/11/23 13:17:29;;;;;;;21.30;13.85;;;;;;;;;;5020514;28;20049;-95
2022/11/23 13:20:14;;;;;;;21.33;14.38;;;;;;;;;;5018631;28;20026;-95
2022/11/23 13:22:51;;;;;;;20.70;14.43;;;;;;;;;;5021824;28;20025;-96
2022/11/23 13:25:30;;;;;;;21.45;14.60;;;;;;;;;;5025092;28;20025;-93
2022/11/23 13:28:17;;;;;;;21.38;14.40;;;;;;;;;;5021928;28;20033;-96
2022/11/23 13:30:45;;;;;;;18.15;12.75;;;;;;;;;;5016945;28;20052;-93
2022/11/23 13:33:17;;;;;;;20.20;14.52;;;;;;;;;;5015541;28;20132;-93
2022/11/23 13:35:46;;;;;;;20.52;14.05;;;;;;;;;;5015392;28;20022;-96
2022/11/23 13:38:20;;;;;;;24.65;15.52;;;;;;;;;;5018430;28;20018;-96
2022/11/23 13:40:46;;;;;;;23.65;15.90;;;;;;;;;;5017118;28;20061;-96
2022/11/23 13:43:52;;;;;;;;;;;;;;;;;;;;;
2022/11/23 13:49:03;;;;;;;24.30;15.98;;;;;;;;;;5245105;23;20054;-94
2022/11/23 13:51:34;;;;;;;25.73;16.50;;;;;;;;;;5000919;28;20076;-96
2022/11/23 13:54:08;;;;;;;24.10;16.33;;;;;;;;;;5000026;28;20033;-93
2022/11/23 13:59:41;;;;;;;;;;;;;;;;;;;;;
2022/11/23 14:12:56;;;;;;;26.33;15.82;;;;;;;;;;5014142;28;20038;-93
2022/11/23 14:15:31;;;;;;;27.00;17.10;;;;;;;;;;4998014;28;20033;-95
2022/11/23 14:18:16;;;;;;;22.35;15.85;;;;;;;;;;4997902;28;20073;-95
2022/11/23 14:20:42;;;;;;;25.90;15.48;;;;;;;;;;4998070;28;20117;-92
2022/11/23 14:23:27;;;;;;;22.98;15.98;;;;;;;;;;4998129;28;20026;-92
2022/11/23 14:26:05;;;;;;;24.58;16.77;;;;;;;;;;4997700;28;20546;-92
2022/11/23 14:28:49;;;;;;;27.67;17.48;;;;;;;;;;4997499;28;20030;-92
2022/11/23 14:31:38;;;;;;;24.75;16.50;;;;;;;;;;4997515;28;20045;-90
2022/11/23 14:34:08;;;;;;;25.98;16.65;;;;;;;;;;4997489;28;20026;-90
2022/11/23 14:36:40;;;;;;;25.05;16.50;;;;;;;;;;4997690;28;20034;-92
2022/11/23 14:39:25;;;;;;;23.13;16.00;;;;;;;;;;4997526;28;20029;-92
2022/11/23 14:41:55;;;;;;;26.20;16.08;;;;;;;;;;4997603;28;20033;-94
2022/11/23 14:44:24;;;;;;;23.83;14.85;;;;;;;;;;4997392;28;20204;-89
2022/11/23 14:47:00;;;;;;;24.92;15.52;;;;;;;;;;4997360;28;20495;-89
2022/11/23 14:49:26;;;;;;;26.02;16.20;;;;;;;;;;4997336;28;20045;-92
2022/11/23 14:51:53;;;;;;;25.80;16.52;;;;;;;;;;4997151;28;20113;-89
2022/11/23 14:54:19;;;;;;;24.98;15.80;;;;;;;;;;5014646;28;20041;-90
2022/11/23 14:56:46;;;;;;;25.52;17.05;;;;;;;;;;4997645;28;20057;-90
2022/11/23 14:59:18;;;;;;;26.40;18.25;;;;;;;;;;4997240;28;20034;-90
2022/11/23 15:01:49;;;;;;;27.83;18.30;;;;;;;;;;4997479;28;20092;-91
2022/11/23 15:04:27;;;;;;;29.70;17.95;;;;;;;;;;4997336;28;20501;-93
2022/11/23 15:06:56;;;;;;;26.25;17.30;;;;;;;;;;4997430;28;20025;-90
2022/11/23 15:09:43;;;;;;;29.60;17.60;;;;;;;;;;4996783;28;20113;-96
2022/11/23 15:12:21;;;;;;;30.67;18.92;;;;;;;;;;4997128;28;20073;-95
2022/11/23 15:14:47;;;;;;;32.60;20.67;;;;;;;;;;4996928;28;20068;-96
2022/11/23 15:18:04;;;;;;;30.60;19.35;;;;;;;;;;4997126;28;20027;-96
2022/11/23 15:20:05;;;;;;;28.60;18.70;;;;;;;;;;4993144;28;20034;-94
2022/11/23 15:22:32;;;;;;;31.35;19.88;;;;;;;;;;4992285;28;20391;-93
2022/11/23 15:25:08;;;;;;;32.15;19.55;;;;;;;;;;4984343;28;20027;-95
2022/11/23 15:27:38;;;;;;;32.15;20.23;;;;;;;;;;4980194;28;20489;-93
2022/11/23 15:30:16;;;;;;;34.03;20.10;;;;;;;;;;4990206;28;20038;-93
2022/11/23 15:32:43;;;;;;;30.65;19.13;;;;;;;;;;5003928;28;20105;-90
2022/11/23 15:35:14;;;;;;;30.60;19.45;;;;;;;;;;4996823;28;20037;-91
2022/11/23 15:37:45;;;;;;;34.47;19.70;;;;;;;;;;4998293;28;20025;-91
2022/11/23 15:40:13;;;;;;;32.42;20.58;;;;;;;;;;4999302;28;20069;-90
2022/11/23 15:42:39;;;;;;;31.00;19.65;;;;;;;;;;4990481;28;20022;-93
2022/11/23 15:45:06;;;;;;;37.17;22.92;;;;;;;;;;4982015;28;20120;-90
2022/11/23 15:47:32;;;;;;;33.05;21.40;;;;;;;;;;4977329;28;20097;-91
2022/11/23 15:50:02;;;;;;;29.33;18.95;;;;;;;;;;4993662;28;20071;-91
2022/11/23 15:52:37;;;;;;;31.10;18.85;;;;;;;;;;4996532;28;20493;-90
2022/11/23 15:55:08;;;;;;;29.50;18.65;;;;;;;;;;4996611;28;20025;-89
2022/11/23 15:57:34;;;;;;;30.63;18.42;;;;;;;;;;4997129;28;20101;-91
2022/11/23 16:00:02;;;;;;;25.63;17.15;;;;;;;;;;4996744;28;20025;-93
2022/11/23 16:02:29;;;;;;;26.58;17.30;;;;;;;;;;4998830;28;20061;-90
2022/11/23 16:05:22;;;;;;;28.63;16.85;;;;;;;;;;4997640;28;20018;-94
2022/11/23 16:11:38;;;;;;;29.23;18.02;;;;;;;;;;4935543;29;20055;-94
2022/11/23 16:14:11;;;;;;;28.67;18.83;;;;;;;;;;4924301;29;20096;-93
2022/11/23 16:19:51;;;;;;;25.98;16.05;;;;;;;;;;4996660;28;20053;-90
2022/11/23 16:22:17;;;;;;;;;;;;;;;;;;4981052;28;20126;-89
2022/11/23 16:24:47;;;;;;;28.25;17.05;;;;;;;;;;4980918;28;19956;-91
2022/11/23 16:27:17;;;;;;;27.38;15.85;;;;;;;;;;4980721;28;20023;-95
2022/11/23 16:29:46;;;;;;;26.38;17.10;;;;;;;;;;4980488;28;20042;-93
2022/11/23 16:44:00;;;;;;;29.25;17.83;;;;;;;;;;5163839;23;20483;-93
2022/11/23 16:49:36;;;;;;;31.25;17.80;;;;;;;;;;5039496;28;20046;-93
2022/11/23 16:52:30;;;;;;;26.83;16.92;;;;;;;;;;5022665;28;20128;-95
2022/11/23 16:55:04;;;;;;;;;;;;;;;;;;4999551;28;20030;-94
2022/11/23 17:00:25;;;;;;;31.75;18.75;;;;;;;;;;5036980;28;20099;-93
2022/11/23 17:05:59;;;;;;;36.95;24.13;;;;;;;;;;4899297;29;20482;-90
2022/11/23 17:08:28;;;;;;;33.30;19.48;;;;;;;;;;4946047;28;20458;-90
2022/11/23 17:11:00;;;;;;;30.85;18.98;;;;;;;;;;5029441;28;20041;-92
2022/11/23 17:22:55;;;;;;;41.95;23.10;;;;;;;;;;5017163;28;20080;-92
2022/11/23 17:25:21;;;;;;;38.33;22.85;;;;;;;;;;4998172;28;20395;-94
2022/11/23 17:27:51;;;;;;;39.15;22.50;;;;;;;;;;4998756;28;20088;-93
2022/11/23 17:33:31;;;;;;;38.25;20.27;;;;;;;;;;5022701;28;20110;-96
2022/11/23 17:35:58;;;;;;;32.03;20.63;;;;;;;;;;5002944;28;20049;-94
2022/11/23 17:44:45;;;;;;;36.47;20.08;;;;;;;;;;4975918;28;20038;-92
2022/11/23 17:47:32;;;;;;;34.88;21.20;;;;;;;;;;4959470;28;20066;-91
2022/11/23 17:49:58;;;;;;;35.80;20.90;;;;;;;;;;4959531;28;20114;-91
2022/11/23 17:53:11;;;;;;;37.55;21.80;;;;;;;;;;4959164;28;20162;-95
2022/11/23 17:56:19;;;;;;;42.10;23.42;;;;;;;;;;4940668;29;20130;-95
2022/11/23 17:58:51;;;;;;;41.90;25.42;;;;;;;;;;4904159;29;20108;-91
2022/11/23 18:01:22;;;;;;;42.10;24.52;;;;;;;;;;4959883;28;20040;-92
2022/11/23 18:03:51;;;;;;;47.05;26.17;;;;;;;;;;4978860;28;20079;-92
2022/11/23 18:06:22;;;;;;;48.08;25.42;;;;;;;;;;4978871;28;20026;-92
2022/11/23 18:08:49;;;;;;;47.35;25.20;;;;;;;;;;4978610;28;20026;-92
2022/11/23 18:11:16;;;;;;;49.40;25.95;;;;;;;;;;4978746;28;20113;-91
2022/11/23 18:14:03;;;;;;;57.42;27.63;;;;;;;;;;4978593;28;20033;-92
2022/11/23 18:16:37;;;;;;;44.88;24.25;;;;;;;;;;4978907;28;20050;-91
2022/11/23 18:19:03;;;;;;;50.03;24.63;;;;;;;;;;4978631;28;20034;-91
2022/11/23 18:21:32;;;;;;;50.25;25.23;;;;;;;;;;4978667;28;20022;-92
2022/11/23 18:24:01;;;;;;;49.10;25.60;;;;;;;;;;4978685;28;20038;-90
2022/11/23 18:26:29;;;;;;;48.20;24.38;;;;;;;;;;4978433;28;20372;-90
2022/11/23 18:29:01;;;;;;;46.20;23.73;;;;;;;;;;4978862;28;20036;-91
2022/11/23 18:31:27;;;;;;;46.90;23.73;;;;;;;;;;4978479;28;20026;-91
2022/11/23 18:33:56;;;;;;;44.95;22.33;;;;;;;;;;4979005;28;20468;-90
2022/11/23 18:36:51;;;;;;;44.65;22.33;;;;;;;;;;4978619;28;20451;-92
2022/11/23 18:39:33;;;;;;;45.20;22.08;;;;;;;;;;4978271;28;20038;-93
2022/11/23 18:42:08;;;;;;;42.47;21.25;;;;;;;;;;4977757;28;20471;-91
2022/11/23 18:44:37;;;;;;;39.83;20.67;;;;;;;;;;4977799;28;20043;-91
2022/11/23 18:47:03;;;;;;;43.22;21.15;;;;;;;;;;4978044;28;20057;-90
2022/11/23 18:49:35;;;;;;;40.22;20.45;;;;;;;;;;4977962;28;20061;-93
2022/11/23 18:52:20;;;;;;;39.63;21.05;;;;;;;;;;4978033;28;20034;-94
2022/11/23 18:54:55;;;;;;;37.53;20.10;;;;;;;;;;4980303;28;20061;-92
2022/11/23 18:57:21;;;;;;;40.63;20.60;;;;;;;;;;4966083;28;20030;-93
2022/11/23 18:59:50;;;;;;;39.45;20.65;;;;;;;;;;4997961;28;20081;-96
2022/11/23 19:02:16;;;;;;;36.78;19.08;;;;;;;;;;5000685;28;20022;-96
2022/11/23 19:04:50;;;;;;;32.58;17.52;;;;;;;;;;4985116;28;20026;-96
2022/11/23 19:10:07;;;;;;;36.58;18.23;;;;;;;;;;4985581;28;20064;-96
2022/11/23 19:12:37;;;;;;;31.95;16.90;;;;;;;;;;4998047;28;20025;-94
2022/11/23 19:15:28;;;;;;;41.25;20.23;;;;;;;;;;4999720;28;20064;-93
2022/11/23 19:17:56;;;;;;;37.15;19.40;;;;;;;;;;5014161;28;20026;-96
2022/11/23 19:26:36;;;;;;;30.58;16.10;;;;;;;;;;5014378;28;20091;-95
2022/11/23 19:31:53;;;;;;;28.25;15.23;;;;;;;;;;4987890;28;20512;-94
2022/11/23 20:15:07;;;;;;;37.33;19.95;;;;;;;;;;5035903;28;20132;-94
2022/11/23 20:17:33;;;;;;;62.97;34.33;;;;;;;;;;5019549;28;20056;-92
2022/11/23 20:23:10;;;;;;;42.15;22.65;;;;;;;;;;5037921;28;20081;-93
2022/11/23 20:25:37;;;;;;;52.17;28.25;;;;;;;;;;5014391;28;20034;-93
2022/11/23 20:28:15;;;;;;;54.53;28.00;;;;;;;;;;5019657;28;20028;-95
2022/11/23 20:30:44;;;;;;;50.45;27.25;;;;;;;;;;5019754;28;20040;-93
2022/11/23 20:33:11;;;;;;;93.10;51.97;;;;;;;;;;5019604;28;20025;-93
2022/11/23 20:35:37;;;;;;;49.50;27.30;;;;;;;;;;5019499;28;20026;-93
2022/11/23 20:38:04;;;;;;;57.35;29.98;;;;;;;;;;5018659;28;20077;-92
2022/11/23 20:40:30;;;;;;;68.13;36.55;;;;;;;;;;5019585;28;20032;-92
2022/11/23 20:42:57;;;;;;;72.32;40.33;;;;;;;;;;5019117;28;20462;-91
2022/11/23 20:45:24;;;;;;;71.30;33.95;;;;;;;;;;5019002;28;20095;-91
2022/11/23 20:47:53;;;;;;;64.93;33.00;;;;;;;;;;5019116;28;20025;-91
2022/11/23 20:50:34;;;;;;;62.58;31.15;;;;;;;;;;5018862;28;20560;-91
2022/11/23 20:53:01;;;;;;;61.58;31.40;;;;;;;;;;5019066;28;20079;-91
2022/11/23 20:55:27;;;;;;;59.20;31.40;;;;;;;;;;5019179;28;20026;-91
2022/11/23 21:01:46;;;;;;;;;;;;;;;;;;;;;
2022/11/23 21:24:10;;;;;;;61.75;28.80;;;;;;;;;;4866172;29;20104;-96
2022/11/23 22:01:00;;;;;;;64.13;29.77;;;;;;;;;;4979701;28;20033;-96
2022/11/23 23:06:41;;;;;;;65.95;32.08;;;;;;;;;;5408032;23;20053;-96
2022/11/23 23:09:40;;;;;;;62.92;30.05;;;;;;;;;;5020064;28;20030;-96
2022/11/23 23:12:30;;;;;;;66.07;32.03;;;;;;;;;;5012491;28;20030;-96
2022/11/23 23:21:57;;;;;;;64.30;31.33;;;;;;;;;;4999253;28;20479;-96
2022/11/23 23:24:26;;;;;;;65.90;31.90;;;;;;;;;;4931771;29;20036;-95
2022/11/23 23:26:57;;;;;;;67.20;32.22;;;;;;;;;;4931529;29;20055;-95
2022/11/23 23:35:38;;;;;;;60.95;31.35;;;;;;;;;;4950607;29;20039;-96
2022/11/23 23:38:24;;;;;;;;;;;;;;;;;;;;;
2022/11/23 23:40:54;;;;;;;60.05;30.88;;;;;;;;;;4962655;29;20130;-95
2022/11/23 23:43:47;;;;;;;64.22;31.52;;;;;;;;;;4948468;29;20027;-96
2022/11/23 23:46:30;;;;;;;62.30;30.75;;;;;;;;;;4949385;29;20051;-93
2022/11/23 23:49:00;;;;;;;62.92;29.85;;;;;;;;;;4947745;29;20433;-95
2022/11/23 23:51:38;;;;;;;67.43;32.63;;;;;;;;;;4951391;29;20155;-96
2022/11/23 23:57:02;;;;;;;63.83;33.15;;;;;;;;;;4959663;29;20032;-95
2022/11/23 23:59:56;;;;;;;67.43;32.90;;;;;;;;;;4950195;29;20074;-94
